Time;durP1;ratioP1;P1;durP2;ratioP2;P2;SDS_P1;SDS_P2;PMS_P1;PMS_P2;Temp;Humidity;BMP_temperature;BMP_pressure;BME280_temperature;BME280_humidity;BME280_pressure;Samples;Min_cycle;Max_cycle;Signal;HPM_P1;HPM_P2
2022/11/14 00:00:33;;;;;;;88.53;42.27;;;;;;;1.90;100.00;99164.21;1714328;83;20988;-78
2022/11/14 00:03:03;;;;;;;;;;;;;;;1.83;100.00;99164.16;1716485;82;20956;-78
2022/11/14 00:05:30;;;;;;;78.60;40.27;;;;;;;1.75;100.00;99162.97;1714375;83;20207;-82
2022/11/14 00:07:56;;;;;;;86.10;44.73;;;;;;;1.75;100.00;99154.13;1713979;83;20984;-78
2022/11/14 00:10:23;;;;;;;89.75;45.43;;;;;;;1.73;100.00;99157.00;1718470;83;21008;-78
2022/11/14 00:12:50;;;;;;;85.80;41.63;;;;;;;1.74;100.00;99154.64;1719163;83;21452;-82
2022/11/14 00:15:17;;;;;;;79.17;39.60;;;;;;;1.74;100.00;99163.17;1719225;83;21000;-78
2022/11/14 00:17:44;;;;;;;91.65;47.20;;;;;;;1.76;100.00;99157.12;1719316;83;21607;-78
2022/11/14 00:20:11;;;;;;;91.90;46.37;;;;;;;1.69;100.00;99158.40;1719133;83;20999;-78
2022/11/14 00:22:38;;;;;;;96.28;46.90;;;;;;;1.64;100.00;99157.66;1719313;83;20977;-78
2022/11/14 00:25:05;;;;;;;106.20;49.90;;;;;;;1.62;100.00;99159.71;1719316;83;21040;-78
2022/11/14 00:27:32;;;;;;;97.20;46.25;;;;;;;1.58;100.00;99155.76;1719278;83;20945;-78
2022/11/14 00:29:59;;;;;;;107.52;50.90;;;;;;;1.59;100.00;99159.25;1719283;82;20980;-78
2022/11/14 00:32:26;;;;;;;85.95;42.50;;;;;;;1.57;100.00;99158.63;1714927;83;21098;-78
2022/11/14 00:34:52;;;;;;;85.20;45.00;;;;;;;1.53;100.00;99155.50;1714178;83;21027;-78
2022/11/14 00:37:19;;;;;;;97.80;48.35;;;;;;;1.56;100.00;99156.98;1714176;83;21018;-78
2022/11/14 00:39:46;;;;;;;95.30;47.20;;;;;;;1.54;100.00;99151.84;1714112;83;21416;-81
2022/11/14 00:42:13;;;;;;;93.22;47.30;;;;;;;1.57;100.00;99155.95;1714060;83;21031;-78
2022/11/14 00:44:40;;;;;;;80.75;39.73;;;;;;;1.54;100.00;99160.33;1714216;83;21318;-78
2022/11/14 00:47:07;;;;;;;98.90;49.75;;;;;;;1.55;100.00;99153.48;1714199;83;20987;-78
2022/11/14 00:49:34;;;;;;;93.42;48.87;;;;;;;1.51;100.00;99160.22;1714035;83;21730;-82
2022/11/14 00:52:01;;;;;;;107.47;48.02;;;;;;;1.53;100.00;99153.34;1714171;83;20953;-78
2022/11/14 00:54:28;;;;;;;102.45;49.63;;;;;;;1.52;100.00;99163.20;1713906;82;21804;-82
2022/11/14 00:56:55;;;;;;;94.67;46.35;;;;;;;1.53;100.00;99160.02;1714165;83;20991;-82
2022/11/14 00:59:22;;;;;;;89.67;46.85;;;;;;;1.51;100.00;99156.72;1713915;83;21058;-78
2022/11/14 01:01:49;;;;;;;100.85;51.53;;;;;;;1.51;100.00;99153.54;1714332;83;21005;-81
2022/11/14 01:04:16;;;;;;;92.75;47.90;;;;;;;1.50;100.00;99163.09;1713852;83;20967;-82
2022/11/14 01:06:43;;;;;;;97.35;50.38;;;;;;;1.51;100.00;99160.73;1713975;83;20955;-78
2022/11/14 01:09:09;;;;;;;86.10;42.25;;;;;;;1.51;100.00;99153.54;1715730;83;20949;-82
2022/11/14 01:11:37;;;;;;;105.45;48.50;;;;;;;1.52;100.00;99152.52;1718988;83;21041;-81
2022/11/14 01:14:06;;;;;;;93.75;47.13;;;;;;;1.49;100.00;99143.56;1719097;83;21013;-82
2022/11/14 01:16:34;;;;;;;86.17;44.50;;;;;;;1.49;100.00;99141.41;1719019;83;21009;-81
2022/11/14 01:19:02;;;;;;;77.50;41.02;;;;;;;1.44;100.00;99137.97;1719046;83;20972;-81
2022/11/14 01:21:29;;;;;;;76.02;41.92;;;;;;;1.42;100.00;99140.02;1719079;83;20972;-78
2022/11/14 01:23:56;;;;;;;62.80;33.92;;;;;;;1.44;100.00;99135.30;1719163;83;20969;-81
2022/11/14 01:26:23;;;;;;;55.05;28.42;;;;;;;1.48;100.00;99131.75;1719038;83;21675;-78
2022/11/14 01:28:50;;;;;;;46.50;25.25;;;;;;;1.43;100.00;99130.98;1719081;83;21419;-78
2022/11/14 01:31:22;;;;;;;49.23;26.62;;;;;;;1.41;100.00;99132.52;1717368;83;20998;-81
2022/11/14 01:33:51;;;;;;;93.00;44.38;;;;;;;1.47;100.00;99136.78;1713981;83;21043;-78
2022/11/14 01:36:18;;;;;;;63.55;31.77;;;;;;;1.45;100.00;99130.78;1714210;83;21007;-79
2022/11/14 01:38:45;;;;;;;45.88;29.57;;;;;;;1.38;100.00;99125.41;1714200;83;21077;-81
2022/11/14 01:41:13;;;;;;;54.48;29.18;;;;;;;1.32;100.00;99117.65;1713970;83;20996;-81
2022/11/14 01:43:40;;;;;;;51.02;23.10;;;;;;;1.33;100.00;99117.14;1714378;83;20983;-78
2022/11/14 01:46:37;;;;;;;43.20;23.77;;;;;;;1.33;100.00;99113.95;1714187;82;20998;-82
2022/11/14 01:49:22;;;;;;;43.90;24.05;;;;;;;1.26;100.00;99117.08;1714105;83;21446;-81
2022/11/14 01:52:02;;;;;;;39.83;20.48;;;;;;;1.21;100.00;99112.84;1713625;83;21073;-81
2022/11/14 01:54:34;;;;;;;33.98;20.95;;;;;;;1.22;100.00;99103.81;1709242;83;20990;-82
2022/11/14 01:57:02;;;;;;;52.27;29.50;;;;;;;1.17;100.00;99108.06;1714026;83;21022;-81
2022/11/14 01:59:36;;;;;;;56.55;29.35;;;;;;;1.22;100.00;99108.33;1703781;83;21011;-82
2022/11/14 02:02:08;;;;;;;47.65;28.57;;;;;;;1.19;100.00;99105.52;1712423;83;20994;-82
2022/11/14 02:04:39;;;;;;;44.25;24.87;;;;;;;1.10;100.00;99102.16;1712809;83;21046;-82
2022/11/14 02:07:06;;;;;;;38.00;22.93;;;;;;;1.13;100.00;99105.80;1712757;82;21035;-78
2022/11/14 02:09:35;;;;;;;51.58;25.57;;;;;;;1.11;100.00;99104.31;1713351;83;20939;-82
2022/11/14 02:12:05;;;;;;;40.30;22.32;;;;;;;1.06;100.00;99104.91;1713977;82;21019;-82
2022/11/14 02:14:32;;;;;;;37.85;21.80;;;;;;;1.01;100.00;99103.31;1714397;83;20975;-81
2022/11/14 02:16:59;;;;;;;39.53;20.50;;;;;;;1.01;100.00;99101.16;1714136;83;21458;-78
2022/11/14 02:19:42;;;;;;;45.75;26.05;;;;;;;1.03;100.00;99103.14;1714067;82;20983;-78
2022/11/14 02:22:08;;;;;;;49.50;24.25;;;;;;;0.93;100.00;99097.28;1713651;82;21034;-81
2022/11/14 02:24:35;;;;;;;46.48;25.57;;;;;;;0.87;100.00;99090.88;1714439;83;21346;-81
2022/11/14 02:27:04;;;;;;;41.75;23.35;;;;;;;0.84;100.00;99085.40;1714247;83;21031;-81
2022/11/14 02:29:32;;;;;;;56.80;31.70;;;;;;;0.89;100.00;99079.50;1704250;83;21051;-78
2022/11/14 02:31:59;;;;;;;56.35;27.93;;;;;;;0.92;100.00;99073.77;1714185;82;20960;-82
2022/11/14 02:34:26;;;;;;;53.55;27.15;;;;;;;0.88;100.00;99069.02;1714401;83;20972;-78
2022/11/14 02:36:53;;;;;;;50.08;27.55;;;;;;;0.90;100.00;99073.14;1714201;83;21404;-78
2022/11/14 02:39:20;;;;;;;65.55;34.80;;;;;;;0.89;100.00;99072.83;1713983;83;20963;-81
2022/11/14 02:41:47;;;;;;;46.90;24.00;;;;;;;0.88;100.00;99065.84;1714185;83;20984;-78
2022/11/14 02:44:14;;;;;;;32.33;19.57;;;;;;;0.81;100.00;99064.95;1703735;83;20972;-79
2022/11/14 02:46:40;;;;;;;44.18;21.93;;;;;;;0.84;100.00;99068.56;1714174;83;21006;-78
2022/11/14 02:49:07;;;;;;;43.90;21.27;;;;;;;0.76;100.00;99062.02;1714177;83;20999;-81
2022/11/14 02:51:34;;;;;;;36.25;19.98;;;;;;;0.69;100.00;99061.98;1714231;83;21038;-78
2022/11/14 02:54:01;;;;;;;40.28;21.07;;;;;;;0.69;100.00;99059.83;1714147;83;21519;-78
2022/11/14 02:56:28;;;;;;;44.08;21.82;;;;;;;0.69;100.00;99058.50;1714191;83;20959;-78
2022/11/14 02:58:55;;;;;;;37.08;19.55;;;;;;;0.67;100.00;99059.17;1714187;83;21011;-82
2022/11/14 03:01:22;;;;;;;35.38;21.45;;;;;;;0.55;100.00;99061.53;1714181;83;20967;-78
2022/11/14 03:03:49;;;;;;;35.38;21.82;;;;;;;0.55;100.00;99055.69;1714199;83;21010;-78
2022/11/14 03:06:16;;;;;;;33.33;20.10;;;;;;;0.48;100.00;99064.12;1714247;83;21038;-81
2022/11/14 03:08:42;;;;;;;39.58;20.92;;;;;;;0.48;100.00;99065.45;1713933;83;20982;-78
2022/11/14 03:11:10;;;;;;;43.78;21.42;;;;;;;0.40;100.00;99064.23;1712620;83;20971;-82
2022/11/14 03:13:37;;;;;;;34.65;20.48;;;;;;;0.35;100.00;99062.66;1712620;82;20987;-82
2022/11/14 03:16:09;;;;;;;32.42;19.07;;;;;;;0.36;100.00;99058.98;1712655;83;21049;-78
2022/11/14 03:18:36;;;;;;;34.05;18.85;;;;;;;0.36;100.00;99061.65;1712543;82;21077;-81
2022/11/14 03:21:11;;;;;;;35.20;21.80;;;;;;;0.31;100.00;99059.22;1712540;83;21626;-81
2022/11/14 03:23:38;;;;;;;40.80;21.27;;;;;;;0.30;100.00;99062.91;1712480;82;21010;-78
2022/11/14 03:26:06;;;;;;;39.10;23.47;;;;;;;0.27;100.00;99055.61;1712636;83;21002;-78
2022/11/14 03:28:34;;;;;;;35.90;22.77;;;;;;;0.26;100.00;99064.63;1712745;82;21042;-81
2022/11/14 03:31:01;;;;;;;34.75;19.02;;;;;;;0.27;100.00;99066.27;1712924;83;21059;-81
2022/11/14 03:33:28;;;;;;;33.08;19.20;;;;;;;0.26;100.00;99057.95;1704010;83;20979;-81
2022/11/14 03:35:55;;;;;;;34.05;19.07;;;;;;;0.21;100.00;99059.02;1714343;83;21412;-82
2022/11/14 03:38:22;;;;;;;33.80;19.02;;;;;;;0.17;100.00;99054.23;1714145;83;20988;-78
2022/11/14 03:40:49;;;;;;;30.32;18.95;;;;;;;0.16;100.00;99054.74;1714238;82;20987;-78
2022/11/14 03:43:17;;;;;;;35.92;21.80;;;;;;;0.19;100.00;99052.23;1714166;83;20995;-78
2022/11/14 03:45:44;;;;;;;37.40;22.00;;;;;;;0.18;100.00;99049.25;1714406;83;21047;-82
2022/11/14 03:48:11;;;;;;;37.55;22.22;;;;;;;0.18;100.00;99051.41;1714081;83;21027;-78
2022/11/14 03:50:39;;;;;;;35.55;20.97;;;;;;;0.19;100.00;99042.90;1714246;83;21451;-78
2022/11/14 03:53:06;;;;;;;34.48;21.37;;;;;;;0.16;100.00;99045.41;1714213;82;21066;-81
2022/11/14 03:55:33;;;;;;;34.67;20.95;;;;;;;0.09;100.00;99041.05;1713926;83;21189;-78
2022/11/14 03:58:00;;;;;;;37.65;18.45;;;;;;;0.03;100.00;99040.45;1713775;83;21042;-81
2022/11/14 04:00:27;;;;;;;32.08;21.02;;;;;;;-0.01;100.00;99041.31;1712775;83;21423;-82
2022/11/14 04:02:55;;;;;;;33.15;19.62;;;;;;;-0.03;100.00;99042.02;1712521;82;21427;-79
2022/11/14 04:05:23;;;;;;;35.08;18.27;;;;;;;-0.06;100.00;99038.41;1713032;83;20970;-81
2022/11/14 04:07:49;;;;;;;34.83;19.23;;;;;;;-0.03;100.00;99040.69;1712565;82;21036;-81
2022/11/14 04:10:17;;;;;;;35.38;18.77;;;;;;;-0.04;100.00;99033.70;1713761;83;21014;-78
2022/11/14 04:12:50;;;;;;;36.85;19.27;;;;;;;-0.13;100.00;99034.83;1714183;82;21046;-78
2022/11/14 04:15:17;;;;;;;29.92;17.45;;;;;;;-0.18;100.00;99035.88;1713789;83;20971;-78
2022/11/14 04:17:44;;;;;;;31.35;18.40;;;;;;;-0.20;100.00;99039.24;1714211;82;20960;-78
2022/11/14 04:20:12;;;;;;;27.27;17.70;;;;;;;-0.28;100.00;99036.17;1714406;83;20999;-82
2022/11/14 04:22:39;;;;;;;36.33;21.37;;;;;;;-0.26;100.00;99037.31;1713819;82;21031;-81
2022/11/14 04:25:07;;;;;;;34.27;18.87;;;;;;;-0.29;100.00;99037.19;1714233;83;21491;-78
2022/11/14 04:27:34;;;;;;;31.97;17.87;;;;;;;-0.27;100.00;99042.32;1714231;82;20983;-81
2022/11/14 04:30:01;;;;;;;34.00;20.57;;;;;;;-0.27;100.00;99037.81;1714273;83;21026;-82
2022/11/14 04:32:28;;;;;;;37.95;19.82;;;;;;;-0.27;100.00;99035.66;1713871;82;21067;-82
2022/11/14 04:34:55;;;;;;;32.00;19.57;;;;;;;-0.26;100.00;99031.98;1714257;83;20988;-81
2022/11/14 04:37:22;;;;;;;32.78;19.55;;;;;;;-0.26;100.00;99033.31;1714006;83;21058;-82
2022/11/14 04:39:48;;;;;;;33.58;19.85;;;;;;;-0.24;100.00;99033.98;1714122;83;21443;-78
2022/11/14 04:42:15;;;;;;;30.92;18.67;;;;;;;-0.20;100.00;99037.41;1714006;83;20979;-80
2022/11/14 04:44:42;;;;;;;36.90;20.55;;;;;;;-0.16;100.00;99033.37;1714081;83;20988;-81
2022/11/14 04:47:09;;;;;;;32.67;20.35;;;;;;;-0.12;100.00;99029.81;1713852;83;21483;-78
2022/11/14 04:49:36;;;;;;;33.55;21.17;;;;;;;-0.11;100.00;99029.62;1714309;83;20983;-78
2022/11/14 04:52:03;;;;;;;34.80;21.45;;;;;;;-0.12;100.00;99031.97;1714064;83;20994;-77
2022/11/14 04:54:30;;;;;;;37.67;24.55;;;;;;;-0.11;100.00;99030.95;1714162;83;21023;-77
2022/11/14 04:56:57;;;;;;;40.15;20.50;;;;;;;-0.13;100.00;99024.17;1714072;83;21368;-82
2022/11/14 04:59:24;;;;;;;37.80;21.87;;;;;;;-0.10;100.00;99019.79;1713874;83;20955;-82
2022/11/14 05:01:51;;;;;;;34.83;20.88;;;;;;;-0.11;100.00;99017.63;1713975;83;21344;-78
2022/11/14 05:04:18;;;;;;;35.55;21.25;;;;;;;-0.09;100.00;99010.27;1713965;83;20995;-82
2022/11/14 05:06:45;;;;;;;43.28;23.95;;;;;;;-0.11;100.00;99011.48;1714146;83;20999;-82
2022/11/14 05:09:12;;;;;;;47.70;26.15;;;;;;;-0.16;100.00;99009.39;1715763;83;20937;-81
2022/11/14 05:11:39;;;;;;;40.23;23.52;;;;;;;-0.14;100.00;99006.03;1719086;83;21448;-78
2022/11/14 05:14:06;;;;;;;44.30;22.62;;;;;;;-0.12;100.00;99005.84;1719144;83;20992;-78
2022/11/14 05:16:33;;;;;;;44.50;28.10;;;;;;;-0.10;100.00;99015.28;1719125;83;20965;-78
2022/11/14 05:18:59;;;;;;;55.23;31.02;;;;;;;-0.17;100.00;99015.73;1719174;83;20964;-82
2022/11/14 05:21:26;;;;;;;53.90;31.55;;;;;;;-0.19;100.00;99007.08;1719236;83;21769;-81
2022/11/14 05:23:53;;;;;;;55.03;31.05;;;;;;;-0.19;100.00;99001.75;1719050;83;20945;-81
2022/11/14 05:26:20;;;;;;;46.05;27.32;;;;;;;-0.20;100.00;98993.45;1719217;83;20956;-78
2022/11/14 05:28:47;;;;;;;47.05;28.23;;;;;;;-0.18;100.00;98998.58;1719220;83;21007;-78
2022/11/14 05:31:16;;;;;;;43.45;22.48;;;;;;;-0.16;100.00;99001.91;1717481;82;20967;-78
2022/11/14 05:33:44;;;;;;;51.60;22.13;;;;;;;-0.20;100.00;99008.09;1714228;82;25478;-82
2022/11/14 05:36:13;;;;;;;44.25;22.67;;;;;;;-0.18;100.00;99006.57;1714255;83;21046;-81
2022/11/14 05:38:40;;;;;;;47.43;22.58;;;;;;;-0.21;100.00;99010.45;1713799;83;21519;-77
2022/11/14 05:41:10;;;;;;;46.45;23.05;;;;;;;-0.23;100.00;99011.66;1713771;82;20963;-82
2022/11/14 05:43:37;;;;;;;;;;;;;;;-0.23;100.00;99016.98;1716458;83;21463;-81
2022/11/14 05:46:06;;;;;;;41.25;22.37;;;;;;;-0.27;100.00;99013.84;1713916;83;20813;-81
2022/11/14 05:48:33;;;;;;;57.73;27.70;;;;;;;-0.23;100.00;99019.14;1714049;83;20936;-78
2022/11/14 05:51:01;;;;;;;55.08;24.25;;;;;;;-0.22;100.00;99011.97;1714023;83;21456;-82
2022/11/14 05:53:29;;;;;;;51.97;24.17;;;;;;;-0.20;100.00;99009.43;1714186;83;21726;-78
2022/11/14 05:56:02;;;;;;;44.35;22.75;;;;;;;-0.24;100.00;99012.67;1714197;83;21073;-78
2022/11/14 05:58:30;;;;;;;43.10;23.20;;;;;;;-0.23;100.00;99015.14;1714128;83;21048;-81
2022/11/14 06:01:03;;;;;;;38.58;21.33;;;;;;;-0.20;100.00;99020.59;1711085;83;20972;-78
2022/11/14 06:03:35;;;;;;;45.63;25.30;;;;;;;-0.21;100.00;99019.77;1693879;83;20958;-78
2022/11/14 06:06:04;;;;;;;53.45;24.77;;;;;;;-0.22;100.00;99013.30;1685016;83;21006;-77
2022/11/14 06:08:31;;;;;;;;;;;;;;;-0.20;100.00;99006.77;1693354;83;21068;-82
2022/11/14 06:11:06;;;;;;;46.05;23.02;;;;;;;-0.16;100.00;99006.73;1697781;82;21013;-82
2022/11/14 06:13:33;;;;;;;31.00;18.55;;;;;;;-0.14;100.00;99005.20;1710604;83;20981;-78
2022/11/14 06:16:06;;;;;;;58.30;22.25;;;;;;;-0.11;100.00;99007.48;1713085;83;20973;-81
2022/11/14 06:18:34;;;;;;;41.45;22.37;;;;;;;-0.10;100.00;99014.45;1706748;82;20985;-78
2022/11/14 06:21:12;;;;;;;37.35;22.15;;;;;;;-0.06;100.00;99011.76;1713836;83;21018;-82
2022/11/14 06:23:39;;;;;;;42.47;23.33;;;;;;;-0.03;100.00;99016.70;1722391;83;21667;-78
2022/11/14 06:26:13;;;;;;;44.00;23.00;;;;;;;0.03;100.00;99025.28;1711251;82;21444;-78
2022/11/14 06:28:39;;;;;;;37.67;21.12;;;;;;;0.09;100.00;99026.39;1696632;82;20980;-82
2022/11/14 06:31:06;;;;;;;41.05;22.25;;;;;;;0.09;100.00;99032.54;1706037;83;21069;-82
2022/11/14 06:33:34;;;;;;;40.33;21.65;;;;;;;0.09;100.00;99025.05;1709523;82;21351;-78
2022/11/14 06:36:04;;;;;;;41.95;23.52;;;;;;;0.12;100.00;99028.16;1686561;82;21727;-82
2022/11/14 06:38:33;;;;;;;48.52;23.85;;;;;;;0.11;100.00;99027.02;1713989;83;21497;-82
2022/11/14 06:41:05;;;;;;;47.67;26.30;;;;;;;0.10;100.00;99026.20;1714384;82;21009;-81
2022/11/14 06:43:34;;;;;;;47.27;24.92;;;;;;;0.11;100.00;99029.17;1707208;82;20985;-78
2022/11/14 06:46:01;;;;;;;47.15;25.57;;;;;;;0.17;100.00;99028.91;1707751;83;21029;-78
2022/11/14 06:48:28;;;;;;;43.13;24.20;;;;;;;0.19;100.00;99017.58;1684047;83;21046;-78
2022/11/14 06:50:56;;;;;;;46.25;24.52;;;;;;;0.22;100.00;99014.02;1684149;83;21005;-78
2022/11/14 06:53:23;;;;;;;66.62;29.95;;;;;;;0.30;100.00;99013.58;1713990;83;20969;-78
2022/11/14 06:56:07;;;;;;;68.70;33.50;;;;;;;0.36;100.00;99017.66;1714461;82;21371;-81
2022/11/14 06:58:37;;;;;;;54.73;28.27;;;;;;;0.31;100.00;99021.38;1713645;83;21115;-81
2022/11/14 07:01:06;;;;;;;57.27;27.40;;;;;;;0.36;100.00;99022.16;1707010;83;21027;-78
2022/11/14 07:03:33;;;;;;;93.20;38.08;;;;;;;0.32;100.00;99021.70;1702818;82;21409;-78
2022/11/14 07:06:00;;;;;;;47.80;23.40;;;;;;;0.34;100.00;99006.33;1708947;83;21426;-78
2022/11/14 07:08:27;;;;;;;45.65;22.37;;;;;;;0.40;100.00;99010.91;1705565;83;20997;-78
2022/11/14 07:11:04;;;;;;;49.55;24.65;;;;;;;0.41;100.00;99011.73;1702999;83;20982;-82
2022/11/14 07:13:31;;;;;;;44.27;24.92;;;;;;;0.38;100.00;99011.61;1711901;83;21122;-78
2022/11/14 07:15:58;;;;;;;50.25;25.80;;;;;;;0.43;100.00;99009.72;1708794;82;21005;-82
2022/11/14 07:18:26;;;;;;;44.05;26.07;;;;;;;0.50;100.00;99011.92;1689733;82;20998;-78
2022/11/14 07:20:57;;;;;;;47.13;26.90;;;;;;;0.53;100.00;99008.89;1688882;83;21009;-82
2022/11/14 07:23:24;;;;;;;47.78;25.55;;;;;;;0.59;100.00;99008.61;1704200;82;21123;-81
2022/11/14 07:25:51;;;;;;;49.53;24.87;;;;;;;0.66;100.00;99007.66;1709488;82;21771;-78
2022/11/14 07:28:18;;;;;;;48.10;24.23;;;;;;;0.67;100.00;99009.81;1709457;81;21034;-81
2022/11/14 07:30:45;;;;;;;58.10;30.30;;;;;;;0.71;100.00;99002.58;1700582;82;21037;-78
2022/11/14 07:33:12;;;;;;;45.10;24.25;;;;;;;0.77;100.00;99003.63;1711566;80;21022;-82
2022/11/14 07:35:39;;;;;;;44.40;25.52;;;;;;;0.79;100.00;98997.63;1700517;82;21116;-78
2022/11/14 07:38:06;;;;;;;48.00;24.00;;;;;;;0.86;100.00;98998.50;1707231;82;21060;-82
2022/11/14 07:40:33;;;;;;;249.82;106.47;;;;;;;0.91;100.00;98996.06;1709207;82;20969;-81
2022/11/14 07:43:00;;;;;;;156.40;94.10;;;;;;;0.93;100.00;98995.34;1705898;82;21142;-78
2022/11/14 07:45:27;;;;;;;111.75;68.30;;;;;;;0.96;100.00;98988.82;1708229;82;21039;-78
2022/11/14 07:47:56;;;;;;;65.87;41.30;;;;;;;1.01;100.00;98992.53;1680362;83;21663;-82
2022/11/14 07:50:24;;;;;;;88.17;53.23;;;;;;;1.04;100.00;98992.68;1710306;82;21010;-78
2022/11/14 07:52:52;;;;;;;65.27;44.93;;;;;;;1.10;100.00;98992.70;1712067;82;21092;-82
2022/11/14 07:55:19;;;;;;;50.97;29.57;;;;;;;1.04;100.00;98994.02;1702643;82;21295;-82
2022/11/14 07:57:47;;;;;;;52.20;30.85;;;;;;;1.05;100.00;98992.48;1710645;82;21002;-78
2022/11/14 08:00:14;;;;;;;50.45;26.60;;;;;;;0.97;100.00;98986.46;1703875;82;21136;-78
2022/11/14 08:02:41;;;;;;;56.42;31.65;;;;;;;1.05;100.00;98978.31;1706633;82;20994;-78
2022/11/14 08:05:08;;;;;;;72.53;38.48;;;;;;;1.04;100.00;98983.34;1706232;82;21479;-82
2022/11/14 08:07:35;;;;;;;50.60;28.62;;;;;;;1.10;100.00;98988.70;1701635;82;21172;-83
2022/11/14 08:10:02;;;;;;;55.00;32.00;;;;;;;1.14;100.00;98978.47;1692188;82;21142;-81
2022/11/14 08:12:29;;;;;;;40.75;26.07;;;;;;;1.17;100.00;98979.91;1699360;82;21545;-81
2022/11/14 08:14:56;;;;;;;34.08;19.80;;;;;;;1.20;100.00;98972.36;1712896;82;21147;-82
2022/11/14 08:17:23;;;;;;;46.15;27.07;;;;;;;1.33;100.00;98971.08;1713805;82;21107;-82
2022/11/14 08:19:50;;;;;;;52.38;30.68;;;;;;;1.34;100.00;98971.91;1712003;82;21004;-78
2022/11/14 08:22:16;;;;;;;59.58;33.80;;;;;;;1.39;100.00;98952.94;1699094;82;21496;-78
2022/11/14 08:24:43;;;;;;;76.05;44.58;;;;;;;1.46;100.00;98946.30;1703923;82;21061;-82
2022/11/14 08:27:10;;;;;;;38.20;21.33;;;;;;;1.55;100.00;98937.61;1703304;82;21443;-78
2022/11/14 08:29:37;;;;;;;103.60;55.85;;;;;;;1.66;100.00;98944.52;1704527;82;21135;-83
2022/11/14 08:32:04;;;;;;;150.93;70.87;;;;;;;1.70;100.00;98943.59;1704324;81;21029;-82
2022/11/14 08:34:31;;;;;;;73.10;44.73;;;;;;;1.80;100.00;98942.73;1690074;82;20989;-78
2022/11/14 08:36:58;;;;;;;52.05;34.15;;;;;;;1.93;100.00;98942.76;1704859;82;21231;-82
2022/11/14 08:39:25;;;;;;;53.50;34.30;;;;;;;2.04;100.00;98938.66;1708030;82;21116;-81
2022/11/14 08:41:52;;;;;;;178.15;92.95;;;;;;;2.13;100.00;98933.95;1701713;82;21089;-78
2022/11/14 08:44:19;;;;;;;97.30;52.93;;;;;;;2.21;100.00;98931.91;1704828;80;20985;-78
2022/11/14 08:46:46;;;;;;;56.10;30.17;;;;;;;2.32;100.00;98936.36;1705628;82;21478;-81
2022/11/14 08:49:13;;;;;;;52.67;28.10;;;;;;;2.40;100.00;98926.29;1706543;80;20958;-78
2022/11/14 08:51:39;;;;;;;57.35;31.90;;;;;;;2.52;100.00;98936.67;1700421;82;21690;-82
2022/11/14 08:54:06;;;;;;;94.10;46.35;;;;;;;2.61;100.00;98928.44;1698488;82;21079;-81
2022/11/14 08:56:33;;;;;;;83.90;41.00;;;;;;;2.70;100.00;98928.02;1701436;82;21667;-78
2022/11/14 08:59:03;;;;;;;247.42;95.28;;;;;;;2.85;100.00;98921.12;1712863;82;21028;-78
2022/11/14 09:01:33;;;;;;;121.28;58.85;;;;;;;2.97;100.00;98917.28;1696931;82;21100;-82
2022/11/14 09:04:00;;;;;;;93.97;43.35;;;;;;;3.11;100.00;98914.38;1706050;82;21129;-77
2022/11/14 09:06:27;;;;;;;65.32;34.85;;;;;;;3.25;100.00;98910.34;1706879;82;21080;-78
2022/11/14 09:08:54;;;;;;;69.55;33.65;;;;;;;3.38;100.00;98914.29;1705852;82;21575;-81
2022/11/14 09:11:21;;;;;;;77.85;37.10;;;;;;;3.50;100.00;98908.56;1702097;82;21600;-78
2022/11/14 09:13:48;;;;;;;127.67;55.80;;;;;;;3.64;100.00;98912.84;1704173;82;20993;-82
2022/11/14 09:16:15;;;;;;;50.52;28.52;;;;;;;3.77;100.00;98911.97;1702725;82;20996;-82
2022/11/14 09:18:42;;;;;;;50.23;26.07;;;;;;;3.88;100.00;98905.92;1712435;82;20985;-82
2022/11/14 09:21:09;;;;;;;53.80;28.25;;;;;;;4.05;100.00;98906.23;1714116;82;21026;-82
2022/11/14 09:23:36;;;;;;;59.58;29.63;;;;;;;4.22;100.00;98900.65;1700161;82;21032;-82
2022/11/14 09:26:06;;;;;;;38.17;21.07;;;;;;;4.39;100.00;98904.14;1705337;82;21137;-82
2022/11/14 09:28:33;;;;;;;87.82;39.23;;;;;;;4.58;100.00;98901.81;1697839;82;21028;-82
2022/11/14 09:31:06;;;;;;;94.80;45.15;;;;;;;4.76;100.00;98909.09;1707640;82;21045;-78
2022/11/14 09:33:33;;;;;;;42.88;24.37;;;;;;;4.91;100.00;98900.70;1712024;82;21045;-82
2022/11/14 09:36:04;;;;;;;58.38;29.90;;;;;;;5.14;100.00;98902.75;1701769;83;21050;-78
2022/11/14 09:38:31;;;;;;;79.30;37.58;;;;;;;5.37;100.00;98889.44;1701918;82;21297;-78
2022/11/14 09:41:16;;;;;;;112.37;51.10;;;;;;;5.56;100.00;98892.95;1709936;82;21031;-79
2022/11/14 09:44:11;;;;;;;46.65;27.67;;;;;;;5.70;100.00;98885.52;1714512;81;21039;-82
2022/11/14 09:46:48;;;;;;;51.33;30.00;;;;;;;5.84;100.00;98884.31;1702319;82;20992;-82
2022/11/14 09:49:30;;;;;;;52.85;29.12;;;;;;;5.99;100.00;98879.38;1694520;82;21039;-79
2022/11/14 09:52:20;;;;;;;55.30;28.02;;;;;;;6.10;100.00;98875.89;1700692;82;21114;-82
2022/11/14 09:54:54;;;;;;;39.80;23.65;;;;;;;6.23;100.00;98867.59;1693614;82;21052;-82
2022/11/14 09:57:21;;;;;;;34.43;20.90;;;;;;;6.39;100.00;98860.73;1676548;83;20993;-79
2022/11/14 09:59:48;;;;;;;52.83;26.65;;;;;;;6.67;100.00;98859.25;1701710;82;20981;-79
2022/11/14 10:02:57;;;;;;;35.95;21.97;;;;;;;6.86;100.00;98860.77;1706336;82;21857;-82
2022/11/14 10:05:49;;;;;;;32.60;18.48;;;;;;;7.08;100.00;98863.66;1683189;85;21488;-79
2022/11/14 10:08:36;;;;;;;27.27;18.35;;;;;;;7.37;100.00;98850.26;1696238;82;21015;-79
2022/11/14 10:11:08;;;;;;;35.45;20.08;;;;;;;7.50;100.00;98845.92;1704656;82;21000;-82
2022/11/14 10:14:07;;;;;;;34.63;19.55;;;;;;;7.57;100.00;98848.77;1701249;82;21045;-79
2022/11/14 10:16:57;;;;;;;;;;;;;;;7.70;100.00;98846.87;1707781;82;21106;-79
2022/11/14 10:19:38;;;;;;;60.65;34.30;;;;;;;7.81;100.00;98836.55;1705131;82;20179;-82
2022/11/14 10:22:37;;;;;;;39.88;20.08;;;;;;;7.90;100.00;98837.80;1713455;82;21048;-79
2022/11/14 10:25:23;;;;;;;27.73;17.67;;;;;;;7.98;100.00;98836.05;1702911;82;20989;-82
2022/11/14 10:28:12;;;;;;;34.40;19.62;;;;;;;8.04;100.00;98828.34;1709238;82;21427;-83
2022/11/14 10:30:43;;;;;;;36.35;18.85;;;;;;;8.07;100.00;98825.14;1708216;82;21394;-82
2022/11/14 10:33:47;;;;;;;34.03;18.75;;;;;;;8.14;100.00;98820.94;1709641;82;21033;-82
2022/11/14 10:36:28;;;;;;;33.78;17.35;;;;;;;8.22;100.00;98813.79;1695634;82;21096;-82
2022/11/14 10:39:07;;;;;;;63.90;29.67;;;;;;;8.33;100.00;98812.88;1702195;82;21029;-82
2022/11/14 10:41:33;;;;;;;47.08;25.27;;;;;;;8.40;100.00;98814.11;1710752;83;21144;-79
2022/11/14 10:44:00;;;;;;;46.45;24.32;;;;;;;8.45;100.00;98806.06;1712409;82;20997;-79
2022/11/14 10:46:31;;;;;;;54.55;26.70;;;;;;;8.50;100.00;98803.45;1632728;83;21016;-82
2022/11/14 10:48:58;;;;;;;62.90;29.65;;;;;;;8.54;100.00;98794.31;1686826;83;21091;-79
2022/11/14 10:51:36;;;;;;;44.70;24.77;;;;;;;8.57;100.00;98796.54;1702358;82;21034;-82
2022/11/14 10:54:15;;;;;;;27.77;18.05;;;;;;;8.60;100.00;98794.68;1704223;82;21150;-79
2022/11/14 10:56:49;;;;;;;27.17;17.77;;;;;;;8.63;100.00;98796.37;1706766;82;28114;-83
2022/11/14 10:59:16;;;;;;;31.37;19.42;;;;;;;8.67;100.00;98787.22;1708474;82;21057;-83
2022/11/14 11:01:54;;;;;;;27.98;18.37;;;;;;;8.71;100.00;98781.59;1701059;82;21764;-82
2022/11/14 11:04:35;;;;;;;24.57;16.73;;;;;;;8.73;100.00;98776.78;1703160;82;21634;-83
2022/11/14 11:11:28;;;;;;;28.38;17.95;;;;;;;8.78;100.00;98770.08;1699099;82;21175;-79
2022/11/14 11:12:47;;;;;;;26.75;16.60;;;;;;;8.81;100.00;98767.43;1646249;83;21112;-79
2022/11/14 11:15:25;;;;;;;23.90;16.57;;;;;;;8.81;100.00;98764.19;1701655;82;21140;-80
2022/11/14 11:18:00;;;;;;;26.42;17.57;;;;;;;8.85;100.00;98757.20;1670227;82;21183;-82
2022/11/14 11:20:38;;;;;;;24.00;14.43;;;;;;;8.87;100.00;98748.84;1709683;82;21506;-79
2022/11/14 11:23:18;;;;;;;26.97;17.53;;;;;;;8.90;100.00;98750.53;1704296;82;21085;-79
2022/11/14 11:25:45;;;;;;;25.45;16.55;;;;;;;8.94;100.00;98750.83;1705596;82;21040;-82
2022/11/14 11:28:20;;;;;;;27.80;16.35;;;;;;;8.98;100.00;98748.73;1691264;82;21611;-82
2022/11/14 11:31:05;;;;;;;24.85;16.02;;;;;;;9.05;100.00;98743.93;1701299;82;21658;-83